This is the latest recevied weather packets stored in our database for station/object OK1PMP-6. If no packets are shown the sender has not sent any weather packets the latest 10 day(s).
| Time | Temp. | Humidity | Pressure | Rain* | Wind** | Luminosity | Snow |
|---|---|---|---|---|---|---|---|
| 1778185817 | 8.89° C | 91% | 1018.5 hPa | 0 mm | - | 0 W/m² | - |
| 1778184915 | 8.89° C | 91% | 1018.3 hPa | 0 mm | - | 0 W/m² | - |
| 1778184027 | 8.89° C | 91% | 1018.2 hPa | 0 mm | - | 0 W/m² | - |
| 1778183108 | 8.89° C | 91% | 1018.1 hPa | 0 mm | - | 0 W/m² | - |
| 1778182227 | 9.44° C | 91% | 1017.6 hPa | 0 mm | - | 0 W/m² | - |
| 1778181304 | 10° C | 89% | 1017.6 hPa | 0 mm | - | 0 W/m² | - |
| 1778180407 | 10.56° C | 87% | 1017.3 hPa | 0 mm | - | 0 W/m² | - |
| 1778179504 | 11.11° C | 85% | 1017.4 hPa | 0 mm | - | 0 W/m² | - |
| 1778178597 | 11.11° C | 85% | 1016.8 hPa | 0 mm | - | 2 W/m² | - |
| 1778177698 | 11.67° C | 84% | 1016.9 hPa | 0 mm | - | 5 W/m² | - |
| 1778176797 | 12.78° C | 79% | 1016.8 hPa | 0 mm | - | 9 W/m² | - |
| 1778175944 | 13.89° C | 74% | 1016.6 hPa | 0 mm | - | 17 W/m² | - |
| 1778175021 | 15° C | 73% | 1016.6 hPa | 0 mm | - | 42 W/m² | - |
| 1778174097 | 14.44° C | 72% | 1016.4 hPa | 0 mm | - | 52 W/m² | - |
| 1778173209 | 14.44° C | 73% | 1016.1 hPa | 0 mm | - | 41 W/m² | - |
| 1778172298 | 14.44° C | 71% | 1016.1 hPa | 0 mm | - | 45 W/m² | - |
| 1778171397 | 14.44° C | 69% | 1015.8 hPa | 0 mm | - | 50 W/m² | - |
| 1778170517 | 15.56° C | 64% | 1015.9 hPa | 0 mm | - | 65 W/m² | - |
| 1778169600 | 17.78° C | 56% | 1015.8 hPa | 0 mm | - | 49 W/m² | - |
| 1778168698 | 18.33° C | 53% | 1015.5 hPa | 0 mm | - | 66 W/m² | - |
| 1778167797 | 19.44° C | 49% | 1015.5 hPa | 0 mm | - | 100 W/m² | - |
| 1778166897 | 20.56° C | 46% | 1015.1 hPa | 0 mm | - | 280 W/m² | - |
| 1778165997 | 19.44° C | 51% | 1015.7 hPa | 0 mm | - | 159 W/m² | - |
| 1778165095 | 18.33° C | 56% | 1015.6 hPa | 0 mm | - | 150 W/m² | - |
| 1778164195 | 16.67° C | 57% | 1015.5 hPa | 0 mm | - | 93 W/m² | - |
* Rain latest hour (hover to see other rain measurements)
** Current wind speed in m/s (hover to see current wind gust speed)